sensor_id;sensor_type;location;lat;lon;timestamp;P1;durP1;ratioP1;P2;durP2;ratioP2
57889;SDS011;43707;50.184;18.966;2022-07-29T00:02:06;8.50;;;3.90;;
57889;SDS011;43707;50.184;18.966;2022-07-29T00:04:34;5.40;;;4.00;;
57889;SDS011;43707;50.184;18.966;2022-07-29T00:07:00;9.70;;;4.60;;
57889;SDS011;43707;50.184;18.966;2022-07-29T00:09:25;7.50;;;3.40;;
57889;SDS011;43707;50.184;18.966;2022-07-29T00:11:50;10.50;;;4.10;;
57889;SDS011;43707;50.184;18.966;2022-07-29T00:14:16;5.50;;;3.30;;
57889;SDS011;43707;50.184;18.966;2022-07-29T00:16:41;4.40;;;3.20;;
57889;SDS011;43707;50.184;18.966;2022-07-29T00:19:07;6.20;;;3.40;;
57889;SDS011;43707;50.184;18.966;2022-07-29T00:21:32;8.10;;;3.80;;
57889;SDS011;43707;50.184;18.966;2022-07-29T00:23:58;5.70;;;3.50;;
57889;SDS011;43707;50.184;18.966;2022-07-29T00:26:23;9.40;;;3.50;;
57889;SDS011;43707;50.184;18.966;2022-07-29T00:28:48;5.50;;;3.40;;
57889;SDS011;43707;50.184;18.966;2022-07-29T00:31:14;6.60;;;4.00;;
57889;SDS011;43707;50.184;18.966;2022-07-29T00:33:40;5.90;;;3.10;;
57889;SDS011;43707;50.184;18.966;2022-07-29T00:36:05;4.10;;;3.20;;
57889;SDS011;43707;50.184;18.966;2022-07-29T00:38:31;7.00;;;3.90;;
57889;SDS011;43707;50.184;18.966;2022-07-29T00:40:56;7.40;;;3.70;;
57889;SDS011;43707;50.184;18.966;2022-07-29T00:43:22;3.90;;;3.30;;
57889;SDS011;43707;50.184;18.966;2022-07-29T00:45:47;5.80;;;3.20;;
57889;SDS011;43707;50.184;18.966;2022-07-29T00:48:12;6.60;;;3.70;;
57889;SDS011;43707;50.184;18.966;2022-07-29T00:50:38;5.00;;;3.30;;
57889;SDS011;43707;50.184;18.966;2022-07-29T00:53:05;4.70;;;3.30;;
57889;SDS011;43707;50.184;18.966;2022-07-29T00:55:31;7.70;;;2.80;;
57889;SDS011;43707;50.184;18.966;2022-07-29T00:57:57;3.50;;;3.20;;
57889;SDS011;43707;50.184;18.966;2022-07-29T01:00:24;4.20;;;2.50;;
57889;SDS011;43707;50.184;18.966;2022-07-29T01:02:51;11.60;;;3.10;;
57889;SDS011;43707;50.184;18.966;2022-07-29T01:05:18;4.60;;;3.00;;
57889;SDS011;43707;50.184;18.966;2022-07-29T01:07:44;7.40;;;2.90;;
57889;SDS011;43707;50.184;18.966;2022-07-29T01:10:12;6.10;;;2.50;;
57889;SDS011;43707;50.184;18.966;2022-07-29T01:12:38;5.20;;;2.50;;
57889;SDS011;43707;50.184;18.966;2022-07-29T01:15:05;3.30;;;2.40;;
57889;SDS011;43707;50.184;18.966;2022-07-29T01:25:48;4.00;;;2.30;;
57889;SDS011;43707;50.184;18.966;2022-07-29T01:31:18;5.10;;;2.40;;
57889;SDS011;43707;50.184;18.966;2022-07-29T01:33:47;8.20;;;2.90;;
57889;SDS011;43707;50.184;18.966;2022-07-29T01:36:27;5.90;;;3.10;;
57889;SDS011;43707;50.184;18.966;2022-07-29T01:42:06;4.70;;;2.40;;
57889;SDS011;43707;50.184;18.966;2022-07-29T01:47:26;7.90;;;2.60;;
57889;SDS011;43707;50.184;18.966;2022-07-29T01:49:56;4.70;;;2.30;;
57889;SDS011;43707;50.184;18.966;2022-07-29T01:52:26;3.90;;;2.70;;
57889;SDS011;43707;50.184;18.966;2022-07-29T01:54:57;4.10;;;2.40;;
57889;SDS011;43707;50.184;18.966;2022-07-29T01:57:26;2.80;;;2.20;;
57889;SDS011;43707;50.184;18.966;2022-07-29T01:59:52;4.50;;;2.90;;
57889;SDS011;43707;50.184;18.966;2022-07-29T02:02:19;4.30;;;1.80;;
57889;SDS011;43707;50.184;18.966;2022-07-29T02:04:45;4.20;;;2.30;;
57889;SDS011;43707;50.184;18.966;2022-07-29T02:07:14;4.20;;;2.10;;
57889;SDS011;43707;50.184;18.966;2022-07-29T02:09:42;3.50;;;2.00;;
57889;SDS011;43707;50.184;18.966;2022-07-29T02:12:09;3.60;;;2.40;;
57889;SDS011;43707;50.184;18.966;2022-07-29T02:14:37;4.10;;;2.10;;
57889;SDS011;43707;50.184;18.966;2022-07-29T02:17:03;2.90;;;1.90;;
57889;SDS011;43707;50.184;18.966;2022-07-29T02:19:30;3.30;;;2.00;;
57889;SDS011;43707;50.184;18.966;2022-07-29T02:21:57;4.20;;;1.80;;
57889;SDS011;43707;50.184;18.966;2022-07-29T02:24:24;2.90;;;2.00;;
57889;SDS011;43707;50.184;18.966;2022-07-29T02:26:50;3.00;;;1.50;;
57889;SDS011;43707;50.184;18.966;2022-07-29T02:29:16;3.70;;;2.20;;
57889;SDS011;43707;50.184;18.966;2022-07-29T02:31:44;2.10;;;1.60;;
57889;SDS011;43707;50.184;18.966;2022-07-29T02:34:12;2.60;;;1.90;;
57889;SDS011;43707;50.184;18.966;2022-07-29T02:36:38;4.90;;;2.10;;
57889;SDS011;43707;50.184;18.966;2022-07-29T02:39:04;3.10;;;1.80;;
57889;SDS011;43707;50.184;18.966;2022-07-29T02:41:35;3.20;;;1.80;;
57889;SDS011;43707;50.184;18.966;2022-07-29T02:44:14;4.00;;;1.60;;
57889;SDS011;43707;50.184;18.966;2022-07-29T02:46:43;3.40;;;2.00;;
57889;SDS011;43707;50.184;18.966;2022-07-29T02:49:25;5.40;;;1.60;;
57889;SDS011;43707;50.184;18.966;2022-07-29T02:52:02;2.90;;;1.80;;
57889;SDS011;43707;50.184;18.966;2022-07-29T02:57:04;3.20;;;2.00;;
57889;SDS011;43707;50.184;18.966;2022-07-29T02:59:34;4.00;;;2.10;;
57889;SDS011;43707;50.184;18.966;2022-07-29T03:02:01;4.10;;;1.80;;
57889;SDS011;43707;50.184;18.966;2022-07-29T03:04:27;4.10;;;1.50;;
57889;SDS011;43707;50.184;18.966;2022-07-29T03:06:55;2.50;;;1.70;;
57889;SDS011;43707;50.184;18.966;2022-07-29T03:09:23;2.80;;;1.60;;
57889;SDS011;43707;50.184;18.966;2022-07-29T03:11:49;4.40;;;1.90;;
57889;SDS011;43707;50.184;18.966;2022-07-29T03:14:15;5.20;;;1.90;;
57889;SDS011;43707;50.184;18.966;2022-07-29T03:16:42;3.00;;;1.80;;
57889;SDS011;43707;50.184;18.966;2022-07-29T03:19:07;3.60;;;1.50;;
57889;SDS011;43707;50.184;18.966;2022-07-29T03:21:33;2.50;;;1.60;;
57889;SDS011;43707;50.184;18.966;2022-07-29T03:23:58;3.30;;;2.00;;
57889;SDS011;43707;50.184;18.966;2022-07-29T03:26:24;3.70;;;1.60;;
57889;SDS011;43707;50.184;18.966;2022-07-29T03:28:50;1.80;;;1.40;;
57889;SDS011;43707;50.184;18.966;2022-07-29T03:31:15;5.00;;;1.60;;
57889;SDS011;43707;50.184;18.966;2022-07-29T03:33:41;4.00;;;1.60;;
57889;SDS011;43707;50.184;18.966;2022-07-29T03:36:06;2.80;;;1.70;;
57889;SDS011;43707;50.184;18.966;2022-07-29T03:38:32;3.10;;;1.70;;
57889;SDS011;43707;50.184;18.966;2022-07-29T03:41:00;3.80;;;1.60;;
57889;SDS011;43707;50.184;18.966;2022-07-29T03:43:32;3.50;;;1.70;;
57889;SDS011;43707;50.184;18.966;2022-07-29T03:45:59;3.60;;;1.80;;
57889;SDS011;43707;50.184;18.966;2022-07-29T03:48:27;4.30;;;1.60;;
57889;SDS011;43707;50.184;18.966;2022-07-29T03:50:54;2.90;;;1.40;;
57889;SDS011;43707;50.184;18.966;2022-07-29T03:53:20;2.90;;;1.70;;
57889;SDS011;43707;50.184;18.966;2022-07-29T03:55:47;1.80;;;1.40;;
57889;SDS011;43707;50.184;18.966;2022-07-29T03:58:14;5.80;;;1.80;;
57889;SDS011;43707;50.184;18.966;2022-07-29T04:00:40;2.40;;;1.70;;
57889;SDS011;43707;50.184;18.966;2022-07-29T04:03:06;2.90;;;1.80;;
57889;SDS011;43707;50.184;18.966;2022-07-29T04:05:32;3.50;;;1.90;;
57889;SDS011;43707;50.184;18.966;2022-07-29T04:07:57;5.30;;;2.00;;
57889;SDS011;43707;50.184;18.966;2022-07-29T04:10:23;1.50;;;1.30;;
57889;SDS011;43707;50.184;18.966;2022-07-29T04:12:48;5.30;;;2.00;;
57889;SDS011;43707;50.184;18.966;2022-07-29T04:15:14;3.80;;;1.50;;
57889;SDS011;43707;50.184;18.966;2022-07-29T04:17:39;4.10;;;1.50;;
57889;SDS011;43707;50.184;18.966;2022-07-29T04:20:08;2.40;;;1.70;;
57889;SDS011;43707;50.184;18.966;2022-07-29T04:22:34;2.50;;;1.80;;
57889;SDS011;43707;50.184;18.966;2022-07-29T04:24:59;3.00;;;1.70;;
57889;SDS011;43707;50.184;18.966;2022-07-29T04:27:25;3.00;;;1.50;;
57889;SDS011;43707;50.184;18.966;2022-07-29T04:29:50;3.30;;;1.70;;
57889;SDS011;43707;50.184;18.966;2022-07-29T04:32:16;6.20;;;1.90;;
57889;SDS011;43707;50.184;18.966;2022-07-29T04:34:41;1.90;;;1.50;;
57889;SDS011;43707;50.184;18.966;2022-07-29T04:37:07;4.80;;;1.90;;
57889;SDS011;43707;50.184;18.966;2022-07-29T04:39:32;4.10;;;1.80;;
57889;SDS011;43707;50.184;18.966;2022-07-29T04:41:58;2.60;;;1.80;;
57889;SDS011;43707;50.184;18.966;2022-07-29T04:44:23;2.00;;;1.70;;
57889;SDS011;43707;50.184;18.966;2022-07-29T04:46:49;2.90;;;1.60;;
57889;SDS011;43707;50.184;18.966;2022-07-29T04:49:14;7.80;;;2.40;;
57889;SDS011;43707;50.184;18.966;2022-07-29T04:51:39;2.90;;;1.70;;
57889;SDS011;43707;50.184;18.966;2022-07-29T04:54:05;3.00;;;1.70;;
57889;SDS011;43707;50.184;18.966;2022-07-29T04:56:31;4.20;;;2.20;;
57889;SDS011;43707;50.184;18.966;2022-07-29T04:58:56;2.60;;;1.70;;
57889;SDS011;43707;50.184;18.966;2022-07-29T05:01:22;3.10;;;1.70;;
57889;SDS011;43707;50.184;18.966;2022-07-29T05:03:47;4.00;;;1.90;;
57889;SDS011;43707;50.184;18.966;2022-07-29T05:06:13;4.00;;;1.70;;
57889;SDS011;43707;50.184;18.966;2022-07-29T05:08:38;4.70;;;1.50;;
57889;SDS011;43707;50.184;18.966;2022-07-29T05:11:03;2.70;;;1.50;;
57889;SDS011;43707;50.184;18.966;2022-07-29T05:13:29;5.80;;;1.90;;
57889;SDS011;43707;50.184;18.966;2022-07-29T05:15:55;10.80;;;2.30;;
57889;SDS011;43707;50.184;18.966;2022-07-29T05:18:20;2.80;;;2.20;;
57889;SDS011;43707;50.184;18.966;2022-07-29T05:20:46;5.90;;;2.00;;
57889;SDS011;43707;50.184;18.966;2022-07-29T05:23:11;2.70;;;2.10;;
57889;SDS011;43707;50.184;18.966;2022-07-29T05:25:39;4.30;;;2.50;;
57889;SDS011;43707;50.184;18.966;2022-07-29T05:28:05;5.20;;;1.90;;
57889;SDS011;43707;50.184;18.966;2022-07-29T05:30:30;2.60;;;1.80;;
57889;SDS011;43707;50.184;18.966;2022-07-29T05:32:56;4.10;;;1.80;;
57889;SDS011;43707;50.184;18.966;2022-07-29T05:35:21;3.00;;;1.70;;
57889;SDS011;43707;50.184;18.966;2022-07-29T05:37:47;4.50;;;1.70;;
57889;SDS011;43707;50.184;18.966;2022-07-29T05:40:13;6.00;;;1.70;;
57889;SDS011;43707;50.184;18.966;2022-07-29T05:42:38;4.00;;;2.00;;
57889;SDS011;43707;50.184;18.966;2022-07-29T05:45:04;4.50;;;1.80;;
57889;SDS011;43707;50.184;18.966;2022-07-29T05:47:30;2.70;;;1.90;;
57889;SDS011;43707;50.184;18.966;2022-07-29T05:49:55;3.90;;;2.10;;
57889;SDS011;43707;50.184;18.966;2022-07-29T05:52:21;3.60;;;2.30;;
57889;SDS011;43707;50.184;18.966;2022-07-29T05:54:47;6.40;;;1.70;;
57889;SDS011;43707;50.184;18.966;2022-07-29T05:57:18;6.40;;;2.00;;
57889;SDS011;43707;50.184;18.966;2022-07-29T05:59:45;7.00;;;2.60;;
57889;SDS011;43707;50.184;18.966;2022-07-29T06:02:11;3.90;;;2.20;;
57889;SDS011;43707;50.184;18.966;2022-07-29T06:04:36;3.90;;;1.90;;
57889;SDS011;43707;50.184;18.966;2022-07-29T06:07:02;3.40;;;2.30;;
57889;SDS011;43707;50.184;18.966;2022-07-29T06:09:27;6.70;;;2.00;;
57889;SDS011;43707;50.184;18.966;2022-07-29T06:11:53;3.80;;;1.80;;
57889;SDS011;43707;50.184;18.966;2022-07-29T06:14:18;3.60;;;1.90;;
57889;SDS011;43707;50.184;18.966;2022-07-29T06:16:44;2.30;;;1.70;;
57889;SDS011;43707;50.184;18.966;2022-07-29T06:19:11;6.40;;;2.00;;
57889;SDS011;43707;50.184;18.966;2022-07-29T06:21:36;2.80;;;2.00;;
57889;SDS011;43707;50.184;18.966;2022-07-29T06:24:06;2.60;;;2.10;;
57889;SDS011;43707;50.184;18.966;2022-07-29T06:26:32;5.30;;;2.10;;
57889;SDS011;43707;50.184;18.966;2022-07-29T06:28:58;9.50;;;2.50;;
57889;SDS011;43707;50.184;18.966;2022-07-29T06:31:23;4.50;;;2.10;;
57889;SDS011;43707;50.184;18.966;2022-07-29T06:33:49;2.90;;;1.90;;
57889;SDS011;43707;50.184;18.966;2022-07-29T06:36:14;3.60;;;2.60;;
57889;SDS011;43707;50.184;18.966;2022-07-29T06:38:40;9.40;;;2.70;;
57889;SDS011;43707;50.184;18.966;2022-07-29T06:41:06;5.00;;;2.60;;
57889;SDS011;43707;50.184;18.966;2022-07-29T06:43:38;3.90;;;2.50;;
57889;SDS011;43707;50.184;18.966;2022-07-29T06:46:13;5.40;;;2.00;;
57889;SDS011;43707;50.184;18.966;2022-07-29T06:48:39;5.10;;;2.50;;
57889;SDS011;43707;50.184;18.966;2022-07-29T06:51:07;4.60;;;2.40;;
57889;SDS011;43707;50.184;18.966;2022-07-29T06:53:33;4.50;;;2.40;;
57889;SDS011;43707;50.184;18.966;2022-07-29T06:56:00;3.90;;;2.30;;
57889;SDS011;43707;50.184;18.966;2022-07-29T06:58:26;5.50;;;2.30;;
57889;SDS011;43707;50.184;18.966;2022-07-29T07:00:52;5.60;;;2.40;;
57889;SDS011;43707;50.184;18.966;2022-07-29T07:03:18;3.10;;;2.30;;
57889;SDS011;43707;50.184;18.966;2022-07-29T07:05:45;3.70;;;2.00;;
57889;SDS011;43707;50.184;18.966;2022-07-29T07:08:11;3.00;;;2.00;;
57889;SDS011;43707;50.184;18.966;2022-07-29T07:10:37;6.00;;;2.50;;
57889;SDS011;43707;50.184;18.966;2022-07-29T07:13:02;5.20;;;2.10;;
57889;SDS011;43707;50.184;18.966;2022-07-29T07:15:29;7.90;;;2.20;;
57889;SDS011;43707;50.184;18.966;2022-07-29T07:17:54;5.40;;;2.30;;
57889;SDS011;43707;50.184;18.966;2022-07-29T07:20:20;4.30;;;2.10;;
57889;SDS011;43707;50.184;18.966;2022-07-29T07:22:45;3.80;;;2.30;;
57889;SDS011;43707;50.184;18.966;2022-07-29T07:25:11;6.50;;;2.80;;
57889;SDS011;43707;50.184;18.966;2022-07-29T07:27:37;5.70;;;2.60;;
57889;SDS011;43707;50.184;18.966;2022-07-29T07:30:04;9.90;;;2.70;;
57889;SDS011;43707;50.184;18.966;2022-07-29T07:32:33;8.00;;;2.40;;
57889;SDS011;43707;50.184;18.966;2022-07-29T07:34:59;6.50;;;2.30;;
57889;SDS011;43707;50.184;18.966;2022-07-29T07:37:25;7.70;;;2.50;;
57889;SDS011;43707;50.184;18.966;2022-07-29T07:39:51;3.40;;;2.20;;
57889;SDS011;43707;50.184;18.966;2022-07-29T07:42:17;11.10;;;2.60;;
57889;SDS011;43707;50.184;18.966;2022-07-29T07:44:43;6.00;;;2.00;;
57889;SDS011;43707;50.184;18.966;2022-07-29T07:47:10;3.60;;;2.30;;
57889;SDS011;43707;50.184;18.966;2022-07-29T07:49:36;3.30;;;1.90;;
57889;SDS011;43707;50.184;18.966;2022-07-29T07:52:01;3.40;;;1.80;;
57889;SDS011;43707;50.184;18.966;2022-07-29T07:54:27;2.60;;;2.30;;
57889;SDS011;43707;50.184;18.966;2022-07-29T07:56:52;4.30;;;2.10;;
57889;SDS011;43707;50.184;18.966;2022-07-29T07:59:18;4.30;;;2.10;;
57889;SDS011;43707;50.184;18.966;2022-07-29T08:01:43;9.50;;;2.10;;
57889;SDS011;43707;50.184;18.966;2022-07-29T08:04:09;3.90;;;2.00;;
57889;SDS011;43707;50.184;18.966;2022-07-29T08:06:34;4.20;;;2.30;;
57889;SDS011;43707;50.184;18.966;2022-07-29T08:09:03;5.30;;;2.30;;
57889;SDS011;43707;50.184;18.966;2022-07-29T08:11:29;3.70;;;2.10;;
57889;SDS011;43707;50.184;18.966;2022-07-29T08:13:55;6.00;;;2.30;;
57889;SDS011;43707;50.184;18.966;2022-07-29T08:16:21;4.70;;;2.10;;
57889;SDS011;43707;50.184;18.966;2022-07-29T08:18:46;3.20;;;2.00;;
57889;SDS011;43707;50.184;18.966;2022-07-29T08:21:12;2.90;;;2.10;;
57889;SDS011;43707;50.184;18.966;2022-07-29T08:23:39;3.30;;;2.00;;
57889;SDS011;43707;50.184;18.966;2022-07-29T08:26:10;3.20;;;2.60;;
57889;SDS011;43707;50.184;18.966;2022-07-29T08:28:37;5.60;;;2.40;;
57889;SDS011;43707;50.184;18.966;2022-07-29T08:31:06;5.20;;;2.10;;
57889;SDS011;43707;50.184;18.966;2022-07-29T08:33:32;10.10;;;3.80;;
57889;SDS011;43707;50.184;18.966;2022-07-29T08:35:58;2.70;;;1.90;;
57889;SDS011;43707;50.184;18.966;2022-07-29T08:38:24;4.60;;;2.20;;
57889;SDS011;43707;50.184;18.966;2022-07-29T08:40:51;5.50;;;2.10;;
57889;SDS011;43707;50.184;18.966;2022-07-29T08:43:18;4.50;;;2.50;;
57889;SDS011;43707;50.184;18.966;2022-07-29T08:45:47;7.20;;;2.80;;
57889;SDS011;43707;50.184;18.966;2022-07-29T08:48:14;3.10;;;2.40;;
57889;SDS011;43707;50.184;18.966;2022-07-29T08:50:42;2.70;;;2.40;;
57889;SDS011;43707;50.184;18.966;2022-07-29T08:53:12;4.60;;;2.80;;
57889;SDS011;43707;50.184;18.966;2022-07-29T08:55:43;3.90;;;2.60;;
57889;SDS011;43707;50.184;18.966;2022-07-29T08:58:13;3.80;;;2.50;;
57889;SDS011;43707;50.184;18.966;2022-07-29T09:00:41;3.80;;;2.50;;
57889;SDS011;43707;50.184;18.966;2022-07-29T09:03:08;3.00;;;2.70;;
57889;SDS011;43707;50.184;18.966;2022-07-29T09:05:34;3.70;;;2.50;;
57889;SDS011;43707;50.184;18.966;2022-07-29T09:08:00;3.10;;;2.50;;
57889;SDS011;43707;50.184;18.966;2022-07-29T09:10:26;3.20;;;2.50;;
57889;SDS011;43707;50.184;18.966;2022-07-29T09:12:53;3.50;;;2.50;;
57889;SDS011;43707;50.184;18.966;2022-07-29T09:15:19;4.90;;;2.40;;
57889;SDS011;43707;50.184;18.966;2022-07-29T09:17:45;4.00;;;2.70;;
57889;SDS011;43707;50.184;18.966;2022-07-29T09:20:15;2.60;;;2.40;;
57889;SDS011;43707;50.184;18.966;2022-07-29T09:22:46;4.60;;;2.20;;
57889;SDS011;43707;50.184;18.966;2022-07-29T09:25:33;3.70;;;2.10;;
57889;SDS011;43707;50.184;18.966;2022-07-29T09:28:06;2.90;;;2.60;;
57889;SDS011;43707;50.184;18.966;2022-07-29T09:30:36;6.40;;;2.30;;
57889;SDS011;43707;50.184;18.966;2022-07-29T09:33:15;2.90;;;2.50;;
57889;SDS011;43707;50.184;18.966;2022-07-29T09:35:41;7.00;;;2.60;;
57889;SDS011;43707;50.184;18.966;2022-07-29T09:38:10;4.40;;;2.20;;
57889;SDS011;43707;50.184;18.966;2022-07-29T09:40:37;3.10;;;2.50;;
57889;SDS011;43707;50.184;18.966;2022-07-29T09:43:09;2.70;;;2.30;;
57889;SDS011;43707;50.184;18.966;2022-07-29T09:45:36;2.90;;;2.50;;
57889;SDS011;43707;50.184;18.966;2022-07-29T09:48:16;4.00;;;2.60;;
57889;SDS011;43707;50.184;18.966;2022-07-29T09:50:46;7.10;;;2.40;;
57889;SDS011;43707;50.184;18.966;2022-07-29T09:56:00;5.00;;;2.10;;
57889;SDS011;43707;50.184;18.966;2022-07-29T09:58:27;2.60;;;2.30;;
57889;SDS011;43707;50.184;18.966;2022-07-29T10:00:53;2.30;;;2.10;;
57889;SDS011;43707;50.184;18.966;2022-07-29T10:03:20;5.20;;;2.30;;
57889;SDS011;43707;50.184;18.966;2022-07-29T10:05:46;5.10;;;2.10;;
57889;SDS011;43707;50.184;18.966;2022-07-29T10:08:32;5.20;;;2.70;;
57889;SDS011;43707;50.184;18.966;2022-07-29T10:11:14;3.60;;;2.50;;
57889;SDS011;43707;50.184;18.966;2022-07-29T10:13:41;2.40;;;2.20;;
57889;SDS011;43707;50.184;18.966;2022-07-29T10:16:08;3.70;;;2.00;;
57889;SDS011;43707;50.184;18.966;2022-07-29T10:18:34;3.80;;;2.20;;
57889;SDS011;43707;50.184;18.966;2022-07-29T10:21:00;3.70;;;2.40;;
57889;SDS011;43707;50.184;18.966;2022-07-29T10:23:29;3.90;;;2.50;;
57889;SDS011;43707;50.184;18.966;2022-07-29T10:25:55;5.40;;;2.30;;
57889;SDS011;43707;50.184;18.966;2022-07-29T10:28:21;5.80;;;2.30;;
57889;SDS011;43707;50.184;18.966;2022-07-29T10:30:46;4.50;;;2.40;;
57889;SDS011;43707;50.184;18.966;2022-07-29T10:38:55;3.30;;;2.30;;
57889;SDS011;43707;50.184;18.966;2022-07-29T10:44:17;2.10;;;1.90;;
57889;SDS011;43707;50.184;18.966;2022-07-29T10:46:44;2.90;;;2.50;;
57889;SDS011;43707;50.184;18.966;2022-07-29T10:49:16;4.00;;;2.30;;
57889;SDS011;43707;50.184;18.966;2022-07-29T10:52:27;3.30;;;2.30;;
57889;SDS011;43707;50.184;18.966;2022-07-29T10:54:48;2.40;;;1.90;;
57889;SDS011;43707;50.184;18.966;2022-07-29T10:59:45;2.50;;;2.30;;
57889;SDS011;43707;50.184;18.966;2022-07-29T11:05:16;3.50;;;2.20;;
57889;SDS011;43707;50.184;18.966;2022-07-29T11:10:49;10.80;;;2.80;;
57889;SDS011;43707;50.184;18.966;2022-07-29T11:16:11;2.90;;;2.00;;
57889;SDS011;43707;50.184;18.966;2022-07-29T11:19:12;3.70;;;2.20;;
57889;SDS011;43707;50.184;18.966;2022-07-29T11:21:38;5.40;;;2.30;;
57889;SDS011;43707;50.184;18.966;2022-07-29T11:24:11;1.80;;;1.60;;
57889;SDS011;43707;50.184;18.966;2022-07-29T11:26:38;2.30;;;1.90;;
57889;SDS011;43707;50.184;18.966;2022-07-29T11:29:14;2.50;;;2.20;;
57889;SDS011;43707;50.184;18.966;2022-07-29T11:31:43;6.40;;;2.40;;
57889;SDS011;43707;50.184;18.966;2022-07-29T11:37:19;2.00;;;1.80;;
57889;SDS011;43707;50.184;18.966;2022-07-29T11:39:40;2.90;;;1.90;;
57889;SDS011;43707;50.184;18.966;2022-07-29T11:44:59;3.60;;;2.00;;
57889;SDS011;43707;50.184;18.966;2022-07-29T11:47:32;2.50;;;1.60;;
57889;SDS011;43707;50.184;18.966;2022-07-29T11:50:29;2.70;;;2.00;;
57889;SDS011;43707;50.184;18.966;2022-07-29T11:52:56;2.80;;;2.00;;
57889;SDS011;43707;50.184;18.966;2022-07-29T11:55:22;3.70;;;2.20;;
57889;SDS011;43707;50.184;18.966;2022-07-29T11:57:55;3.70;;;2.00;;
57889;SDS011;43707;50.184;18.966;2022-07-29T12:00:25;4.20;;;2.10;;
57889;SDS011;43707;50.184;18.966;2022-07-29T12:02:51;4.70;;;2.10;;
57889;SDS011;43707;50.184;18.966;2022-07-29T12:05:17;4.90;;;1.90;;
57889;SDS011;43707;50.184;18.966;2022-07-29T12:07:43;3.80;;;2.00;;
57889;SDS011;43707;50.184;18.966;2022-07-29T12:10:08;4.30;;;2.20;;
57889;SDS011;43707;50.184;18.966;2022-07-29T12:12:34;6.20;;;3.50;;
57889;SDS011;43707;50.184;18.966;2022-07-29T12:15:16;2.50;;;2.20;;
57889;SDS011;43707;50.184;18.966;2022-07-29T12:17:45;2.30;;;2.10;;
57889;SDS011;43707;50.184;18.966;2022-07-29T12:20:11;2.60;;;2.00;;
57889;SDS011;43707;50.184;18.966;2022-07-29T12:22:39;5.70;;;2.10;;
57889;SDS011;43707;50.184;18.966;2022-07-29T12:25:10;3.30;;;2.50;;
57889;SDS011;43707;50.184;18.966;2022-07-29T12:27:37;3.00;;;2.10;;
57889;SDS011;43707;50.184;18.966;2022-07-29T12:30:07;4.00;;;2.00;;
57889;SDS011;43707;50.184;18.966;2022-07-29T12:32:38;3.80;;;2.50;;
57889;SDS011;43707;50.184;18.966;2022-07-29T12:35:19;2.70;;;2.30;;
57889;SDS011;43707;50.184;18.966;2022-07-29T12:37:46;2.30;;;2.10;;
57889;SDS011;43707;50.184;18.966;2022-07-29T12:40:13;3.30;;;2.80;;
57889;SDS011;43707;50.184;18.966;2022-07-29T12:42:41;2.70;;;2.20;;
57889;SDS011;43707;50.184;18.966;2022-07-29T12:45:29;3.70;;;2.10;;
57889;SDS011;43707;50.184;18.966;2022-07-29T12:47:56;3.30;;;2.30;;
57889;SDS011;43707;50.184;18.966;2022-07-29T12:50:21;2.80;;;2.10;;
57889;SDS011;43707;50.184;18.966;2022-07-29T12:52:47;4.20;;;2.10;;
57889;SDS011;43707;50.184;18.966;2022-07-29T12:55:13;2.70;;;2.30;;
57889;SDS011;43707;50.184;18.966;2022-07-29T12:57:49;3.80;;;2.60;;
57889;SDS011;43707;50.184;18.966;2022-07-29T13:00:21;3.50;;;2.30;;
57889;SDS011;43707;50.184;18.966;2022-07-29T13:02:56;8.90;;;3.50;;
57889;SDS011;43707;50.184;18.966;2022-07-29T13:05:22;12.00;;;5.70;;
57889;SDS011;43707;50.184;18.966;2022-07-29T13:07:49;9.50;;;5.20;;
57889;SDS011;43707;50.184;18.966;2022-07-29T13:10:18;3.50;;;3.10;;
57889;SDS011;43707;50.184;18.966;2022-07-29T13:15:31;3.90;;;2.40;;
57889;SDS011;43707;50.184;18.966;2022-07-29T13:17:57;5.10;;;3.00;;
57889;SDS011;43707;50.184;18.966;2022-07-29T13:20:24;5.80;;;3.40;;
57889;SDS011;43707;50.184;18.966;2022-07-29T13:22:52;12.10;;;3.50;;
57889;SDS011;43707;50.184;18.966;2022-07-29T13:25:51;5.30;;;2.00;;
57889;SDS011;43707;50.184;18.966;2022-07-29T13:28:09;6.80;;;2.80;;
57889;SDS011;43707;50.184;18.966;2022-07-29T13:30:36;3.80;;;2.20;;
57889;SDS011;43707;50.184;18.966;2022-07-29T13:33:02;4.40;;;1.80;;
57889;SDS011;43707;50.184;18.966;2022-07-29T13:35:28;3.60;;;2.20;;
57889;SDS011;43707;50.184;18.966;2022-07-29T13:37:54;4.70;;;2.80;;
57889;SDS011;43707;50.184;18.966;2022-07-29T13:40:20;3.40;;;2.40;;
57889;SDS011;43707;50.184;18.966;2022-07-29T13:42:45;3.30;;;1.90;;
57889;SDS011;43707;50.184;18.966;2022-07-29T13:45:11;3.00;;;2.00;;
57889;SDS011;43707;50.184;18.966;2022-07-29T13:47:37;3.90;;;2.50;;
57889;SDS011;43707;50.184;18.966;2022-07-29T13:50:03;5.30;;;2.10;;
57889;SDS011;43707;50.184;18.966;2022-07-29T13:52:30;5.40;;;1.90;;
57889;SDS011;43707;50.184;18.966;2022-07-29T13:54:56;4.70;;;2.30;;
57889;SDS011;43707;50.184;18.966;2022-07-29T13:57:21;3.70;;;2.00;;
57889;SDS011;43707;50.184;18.966;2022-07-29T13:59:46;3.60;;;2.50;;
57889;SDS011;43707;50.184;18.966;2022-07-29T14:02:12;4.60;;;2.20;;
57889;SDS011;43707;50.184;18.966;2022-07-29T14:04:38;3.90;;;2.30;;
57889;SDS011;43707;50.184;18.966;2022-07-29T14:07:04;3.20;;;2.20;;
57889;SDS011;43707;50.184;18.966;2022-07-29T14:09:30;4.80;;;1.90;;
57889;SDS011;43707;50.184;18.966;2022-07-29T14:11:56;4.20;;;2.40;;
57889;SDS011;43707;50.184;18.966;2022-07-29T14:14:21;2.70;;;2.10;;
57889;SDS011;43707;50.184;18.966;2022-07-29T14:16:47;2.70;;;2.20;;
57889;SDS011;43707;50.184;18.966;2022-07-29T14:19:12;7.00;;;2.10;;
57889;SDS011;43707;50.184;18.966;2022-07-29T14:21:38;3.60;;;2.00;;
57889;SDS011;43707;50.184;18.966;2022-07-29T14:24:04;2.40;;;1.90;;
57889;SDS011;43707;50.184;18.966;2022-07-29T14:26:30;8.70;;;2.30;;
57889;SDS011;43707;50.184;18.966;2022-07-29T14:28:55;4.50;;;2.30;;
57889;SDS011;43707;50.184;18.966;2022-07-29T14:31:21;4.90;;;2.40;;
57889;SDS011;43707;50.184;18.966;2022-07-29T14:33:46;5.30;;;1.90;;
57889;SDS011;43707;50.184;18.966;2022-07-29T14:36:12;5.80;;;2.10;;
57889;SDS011;43707;50.184;18.966;2022-07-29T14:38:37;3.10;;;2.20;;
57889;SDS011;43707;50.184;18.966;2022-07-29T14:41:03;8.00;;;2.40;;
57889;SDS011;43707;50.184;18.966;2022-07-29T14:43:29;7.10;;;2.50;;
57889;SDS011;43707;50.184;18.966;2022-07-29T14:45:55;5.20;;;2.40;;
57889;SDS011;43707;50.184;18.966;2022-07-29T14:48:20;5.30;;;2.50;;
57889;SDS011;43707;50.184;18.966;2022-07-29T14:50:46;4.90;;;2.30;;
57889;SDS011;43707;50.184;18.966;2022-07-29T14:53:11;4.30;;;2.70;;
57889;SDS011;43707;50.184;18.966;2022-07-29T14:55:40;3.60;;;2.10;;
57889;SDS011;43707;50.184;18.966;2022-07-29T14:58:07;5.90;;;2.50;;
57889;SDS011;43707;50.184;18.966;2022-07-29T15:00:32;5.20;;;2.50;;
57889;SDS011;43707;50.184;18.966;2022-07-29T15:02:59;4.30;;;2.30;;
57889;SDS011;43707;50.184;18.966;2022-07-29T15:05:25;6.40;;;2.60;;
57889;SDS011;43707;50.184;18.966;2022-07-29T15:07:51;4.10;;;2.60;;
57889;SDS011;43707;50.184;18.966;2022-07-29T15:10:16;4.10;;;2.10;;
57889;SDS011;43707;50.184;18.966;2022-07-29T15:12:42;3.50;;;2.10;;
57889;SDS011;43707;50.184;18.966;2022-07-29T15:15:07;2.80;;;2.10;;
57889;SDS011;43707;50.184;18.966;2022-07-29T15:17:33;3.70;;;1.80;;
57889;SDS011;43707;50.184;18.966;2022-07-29T15:19:59;3.10;;;2.20;;
57889;SDS011;43707;50.184;18.966;2022-07-29T15:22:25;3.30;;;1.80;;
57889;SDS011;43707;50.184;18.966;2022-07-29T15:24:50;4.90;;;2.50;;
57889;SDS011;43707;50.184;18.966;2022-07-29T15:27:15;4.20;;;2.00;;